超强台风潭美(Trami)下的冲绳

上次超强台风飞燕(Super Typhoon Jebi)来袭造成关西机场关闭,损失重大,
所以对今天的超强台风潭美(Trami)也关注一下,看一看枯燥的NOTAM和气象数据。

先看冲绳那霸机场的NOTAM。
机场关闭,ATC只提供remote服务,塔台人员为了安全已经撤出。

4050⁄18 FROM 18/09/28 22:50 TO 18/09/29 21:00 E)ABN-U/S DUE TO TYPH


4049⁄18 FROM 18/09/28 22:33 TO 18/09/29 14:00
E)TWR-CLSD DUE TO TYPH EVACUATION
RMK/(1)ATC SERVICE IS AVBL
(2)AVBL TWR FREQ
118.1MHZ
308.6MHZ
121.5MHZ
243.0MHZ

4048⁄18 FROM 18/09/28 14:19 TO 18/09/29 21:00
E)RADAR SER NOT PROVIDED
DUE TO AP-SURVEILLANCE RADAR/SSR TYPH


4047⁄18 FROM 18/09/28 14:00 TO 18/09/29 21:00
E)ALL WDI-U/S DUE TO TYPH


4046⁄18 FROM 18/09/28 14:00 TO 18/09/29 21:00
E)FLW LGT-U/S DUE TO TYPH
PAPI FOR RWY 18/36
WDI-LGT ON RWY 18 AND 36 SIDE


4045⁄18 FROM 18/09/28 09:05 TO 18/09/29 21:00
E)PAR FOR RWY 36-U/S DUE TO TYPH

4044⁄18 FROM 18/09/28 09:05 TO 18/09/29 21:00
E)PAR FOR RWY 18-U/S DUE TO TYPH

4030⁄18 FROM 18/09/27 12:19 TO UFN
E)NAHA AIR BASE TYPH COND NR 1 AS OF 1809271200


支 持 本 站: 捐赠服务器等运维费用,感谢您的支持!

再看看天气报

METAR UTC DATE/TIME

ROAH 290230Z 15050G73KT 0900 R18/0500V1000U +SHRA FEW008 BKN012 BKN020 26/24 Q0959 2018-09-29 02:30:00

ROAH 290200Z 13048G68KT 0900 R18/0500V0800N SHRA FEW008 BKN012 BKN020 26/24 Q0960 2018-09-29 02:00:00

ROAH 290130Z 13047G77KT 0500 R18/0300N +SHRA FEW008 BKN012 BKN020 26/25 Q0961 2018-09-29 01:30:00

ROAH 290100Z 13047G80KT 0500 R18/0350V0500N +SHRA FEW008 BKN012 BKN020 26/25 Q0963 2018-09-29 01:00:00

ROAH 290046Z 12046G73KT 0500 R18/0250V0450D +SHRA FEW008 BKN012 BKN020 26/25 Q0963 RMK 1ST008 5CU012 6CU020 A2845 P/FR RI++ 2018-09-29 00:46:00

ROAH 290012Z 12045G68KT 0500 R18/0250V0450N +SHRA FEW008 BKN015 BKN020 26/24 Q0966 RMK 1ST008 5CU015 6CU020 A2853 P/FR 2018-09-29 00:12:00

ROAH 282347Z 11045G81KT 0600 R18/0350V0600N +SHRA SCT010 BKN015 BKN020 26/24 Q0968 RMK 4CU010 5CU015 6CU020 A2859 2018-09-28 23:47:00

ROAH 282320Z 11040G70KT 0600 R18/0450V1100D +SHRA SCT010 BKN015 BKN020 26/24 Q0970 RMK 4CU010 5CU015 6CU020 A2866 RI++ 2018-09-28 23:20:00

ROAH 282248Z 11041G73KT 3500 SHRA SCT010 BKN015 BKN020 26/24 Q0972 RMK 4CU010 5CU015 6CU020 A2872 P/FR 2018-09-28 22:48:00

好在风速没有大阪那么大,应该对机场设施的影响不会太大吧。


因为所有航班都被取消,所以可以看到琉球群岛上空一架飞机都没有。

支 持 本 站: 捐赠服务器等运维费用,感谢您的支持!